Time,TemperatureF,DewpointF,PressureIn,WindDirection,WindDirectionDegrees,WindSpeedMPH,WindSpeedGustMPH,Humidity,HourlyPrecipIn,Conditions,Clouds,dailyrainin,SoftwareType,DateUTC
2014-01-27 00:01:00,18.1,9.0,29.43,West,270,7.6,16.8,67,0.00,,,0.00,WUHU21623XXSP,2014-01-27 05:01:00,
2014-01-27 00:06:00,17.8,9.0,29.44,WNW,290,10.4,19.0,68,0.00,,,0.00,WUHU21623XXSP,2014-01-27 05:06:00,
2014-01-27 00:11:00,17.4,8.6,29.44,WNW,292,8.3,19.0,68,0.00,,,0.00,WUHU21623XXSP,2014-01-27 05:11:00,
2014-01-27 00:16:00,17.2,8.5,29.44,NNW,337,9.2,19.5,68,0.00,,,0.00,WUHU21623XXSP,2014-01-27 05:16:00,
2014-01-27 00:21:00,16.9,7.8,29.45,WNW,292,4.5,19.5,67,0.00,,,0.00,WUHU21623XXSP,2014-01-27 05:21:00,
2014-01-27 00:26:00,16.5,7.4,29.45,West,270,6.9,15.0,67,0.00,,,0.00,WUHU21623XXSP,2014-01-27 05:26:00,
2014-01-27 00:31:00,16.3,7.6,29.45,West,275,7.7,14.3,68,0.00,,,0.00,WUHU21623XXSP,2014-01-27 05:31:00,
2014-01-27 00:36:00,16.3,7.6,29.46,West,270,4.0,14.3,68,0.00,,,0.00,WUHU21623XXSP,2014-01-27 05:36:00,
2014-01-27 00:41:00,16.2,8.3,29.47,WNW,284,9.4,18.8,71,0.00,,,0.00,WUHU21623XXSP,2014-01-27 05:41:00,
2014-01-27 00:46:00,16.0,8.5,29.48,NW,315,7.2,18.8,72,0.00,,,0.00,WUHU21623XXSP,2014-01-27 05:46:00,
2014-01-27 00:51:00,15.8,9.5,29.48,WNW,291,7.1,21.3,76,0.00,,,0.00,WUHU21623XXSP,2014-01-27 05:51:00,
2014-01-27 00:56:00,15.4,9.5,29.48,WNW,292,10.5,21.3,77,0.00,,,0.00,WUHU21623XXSP,2014-01-27 05:56:00,
2014-01-27 01:01:00,15.1,8.8,29.49,North,0,5.4,18.3,76,0.00,,,0.00,WUHU21623XXSP,2014-01-27 06:01:00,
2014-01-27 01:06:00,14.7,8.5,29.50,WNW,292,5.6,13.6,76,0.00,,,0.00,WUHU21623XXSP,2014-01-27 06:06:00,
2014-01-27 01:11:00,14.5,7.1,29.50,WSW,247,8.9,15.4,72,0.00,,,0.00,WUHU21623XXSP,2014-01-27 06:11:00,
2014-01-27 01:16:00,14.4,7.4,29.51,NW,315,8.5,15.4,73,0.00,,,0.00,WUHU21623XXSP,2014-01-27 06:16:00,
2014-01-27 01:21:00,14.4,7.9,29.51,WNW,303,7.8,14.5,75,0.00,,,0.00,WUHU21623XXSP,2014-01-27 06:21:00,
2014-01-27 01:26:00,14.2,7.7,29.52,WNW,303,5.5,14.5,75,0.00,,,0.00,WUHU21623XXSP,2014-01-27 06:26:00,
2014-01-27 01:31:00,13.8,7.6,29.53,WNW,289,7.9,17.4,76,0.00,,,0.00,WUHU21623XXSP,2014-01-27 06:31:00,
2014-01-27 01:36:00,13.8,7.6,29.53,WNW,292,4.0,17.4,76,0.00,,,0.00,WUHU21623XXSP,2014-01-27 06:36:00,
2014-01-27 01:41:00,13.6,7.2,29.53,WNW,292,8.9,10.5,75,0.00,,,0.00,WUHU21623XXSP,2014-01-27 06:41:00,
2014-01-27 01:46:00,13.5,6.4,29.53,NNW,328,5.4,15.0,73,0.00,,,0.00,WUHU21623XXSP,2014-01-27 06:46:00,
2014-01-27 01:51:00,13.3,6.2,29.54,West,270,7.8,15.0,73,0.00,,,0.00,WUHU21623XXSP,2014-01-27 06:51:00,
2014-01-27 01:56:00,13.1,6.3,29.54,West,270,11.0,14.5,74,0.00,,,0.00,WUHU21623XXSP,2014-01-27 06:56:00,
2014-01-27 02:01:00,13.1,6.9,29.55,NW,306,4.4,14.1,76,0.00,,,0.00,WUHU21623XXSP,2014-01-27 07:01:00,
2014-01-27 02:06:00,12.7,6.8,29.55,WNW,282,5.2,11.9,77,0.00,,,0.00,WUHU21623XXSP,2014-01-27 07:06:00,
2014-01-27 02:11:00,12.6,6.4,29.56,West,270,10.1,15.0,76,0.00,,,0.00,WUHU21623XXSP,2014-01-27 07:11:00,
2014-01-27 02:16:00,12.4,5.6,29.56,WNW,297,7.1,15.0,74,0.00,,,0.00,WUHU21623XXSP,2014-01-27 07:16:00,
2014-01-27 02:21:00,12.4,5.6,29.57,West,269,6.9,14.5,74,0.00,,,0.00,WUHU21623XXSP,2014-01-27 07:21:00,
2014-01-27 02:26:00,12.2,6.3,29.58,NW,312,8.1,15.7,77,0.00,,,0.00,WUHU21623XXSP,2014-01-27 07:26:00,
2014-01-27 02:31:00,12.0,6.1,29.58,WNW,292,5.8,15.7,77,0.00,,,0.00,WUHU21623XXSP,2014-01-27 07:31:00,
2014-01-27 02:36:00,11.7,6.0,29.59,NW,318,5.6,14.8,78,0.00,,,0.00,WUHU21623XXSP,2014-01-27 07:36:00,
2014-01-27 02:41:00,11.5,5.6,29.60,NW,315,14.5,16.3,77,0.00,,,0.00,WUHU21623XXSP,2014-01-27 07:41:00,
2014-01-27 02:46:00,11.3,4.8,29.61,NW,305,7.6,19.7,75,0.00,,,0.00,WUHU21623XXSP,2014-01-27 07:46:00,
2014-01-27 02:51:00,11.3,5.4,29.61,WNW,302,8.2,19.7,77,0.00,,,0.00,WUHU21623XXSP,2014-01-27 07:51:00,
2014-01-27 02:56:00,11.1,5.5,29.61,West,270,8.1,13.4,78,0.00,,,0.00,WUHU21623XXSP,2014-01-27 07:56:00,
2014-01-27 03:01:00,11.1,5.8,29.62,WNW,292,5.4,13.4,79,0.00,,,0.00,WUHU21623XXSP,2014-01-27 08:01:00,
2014-01-27 03:06:00,10.9,5.6,29.63,NW,315,9.6,14.8,79,0.00,,,0.00,WUHU21623XXSP,2014-01-27 08:06:00,
2014-01-27 03:11:00,10.8,5.4,29.63,West,270,9.8,14.8,78,0.00,,,0.00,WUHU21623XXSP,2014-01-27 08:11:00,
2014-01-27 03:16:00,10.6,5.0,29.63,WNW,292,8.5,13.6,78,0.00,,,0.00,WUHU21623XXSP,2014-01-27 08:16:00,
2014-01-27 03:21:00,10.6,5.0,29.64,WSW,247,6.5,11.9,78,0.00,,,0.00,WUHU21623XXSP,2014-01-27 08:21:00,
2014-01-27 03:26:00,10.4,4.5,29.64,NNW,337,6.9,12.5,77,0.00,,,0.00,WUHU21623XXSP,2014-01-27 08:26:00,
2014-01-27 03:31:00,10.2,3.8,29.64,WNW,301,4.2,12.5,75,0.00,,,0.00,WUHU21623XXSP,2014-01-27 08:31:00,
2014-01-27 03:36:00,10.2,3.8,29.64,NW,315,10.5,13.0,75,0.00,,,0.00,WUHU21623XXSP,2014-01-27 08:36:00,
2014-01-27 03:41:00,10.2,4.0,29.65,North,0,7.4,13.0,76,0.00,,,0.00,WUHU21623XXSP,2014-01-27 08:41:00,
2014-01-27 03:46:00,10.2,4.0,29.65,West,270,6.9,13.0,76,0.00,,,0.00,WUHU21623XXSP,2014-01-27 08:46:00,
2014-01-27 03:51:00,10.2,4.3,29.66,West,270,5.6,11.6,77,0.00,,,0.00,WUHU21623XXSP,2014-01-27 08:51:00,
2014-01-27 03:56:00,10.2,4.3,29.66,NW,315,9.4,14.5,77,0.00,,,0.00,WUHU21623XXSP,2014-01-27 08:56:00,
2014-01-27 04:02:00,10.2,4.3,29.67,WNW,299,4.0,14.5,77,0.00,,,0.00,WUHU21623XXSP,2014-01-27 09:02:00,
2014-01-27 04:07:00,10.2,4.3,29.68,WNW,295,4.6,12.1,77,0.00,,,0.00,WUHU21623XXSP,2014-01-27 09:07:00,
2014-01-27 04:12:00,10.4,4.5,29.68,WNW,289,6.8,15.0,77,0.00,,,0.00,WUHU21623XXSP,2014-01-27 09:12:00,
2014-01-27 04:17:00,10.6,4.4,29.68,NW,315,6.3,15.0,76,0.00,,,0.00,WUHU21623XXSP,2014-01-27 09:17:00,
2014-01-27 04:22:00,10.6,4.4,29.68,NW,323,7.1,11.6,76,0.00,,,0.00,WUHU21623XXSP,2014-01-27 09:22:00,
2014-01-27 04:27:00,10.6,4.7,29.69,North,0,6.3,13.4,77,0.00,,,0.00,WUHU21623XXSP,2014-01-27 09:27:00,
2014-01-27 04:32:00,10.2,4.3,29.70,NW,325,5.2,13.4,77,0.00,,,0.00,WUHU21623XXSP,2014-01-27 09:32:00,
2014-01-27 04:37:00,10.2,4.3,29.70,NW,315,8.5,12.5,77,0.00,,,0.00,WUHU21623XXSP,2014-01-27 09:37:00,
2014-01-27 04:42:00,10.2,4.6,29.71,NW,304,4.7,16.6,78,0.00,,,0.00,WUHU21623XXSP,2014-01-27 09:42:00,
2014-01-27 04:47:00,10.2,4.6,29.71,NW,315,4.3,16.6,78,0.00,,,0.00,WUHU21623XXSP,2014-01-27 09:47:00,
2014-01-27 04:52:00,10.2,4.9,29.71,West,270,7.4,15.4,79,0.00,,,0.00,WUHU21623XXSP,2014-01-27 09:52:00,
2014-01-27 04:57:00,10.0,4.7,29.72,WNW,292,7.6,18.1,79,0.00,,,0.00,WUHU21623XXSP,2014-01-27 09:57:00,
2014-01-27 05:02:00,9.7,4.4,29.73,WNW,289,6.7,18.1,79,0.00,,,0.00,WUHU21623XXSP,2014-01-27 10:02:00,
2014-01-27 05:07:00,9.7,4.4,29.73,WNW,288,6.0,11.9,78,0.00,,,0.00,WUHU21623XXSP,2014-01-27 10:07:00,
2014-01-27 05:12:00,9.7,4.1,29.74,NW,315,6.5,11.9,78,0.00,,,0.00,WUHU21623XXSP,2014-01-27 10:12:00,
2014-01-27 05:17:00,9.7,4.1,29.74,West,270,8.9,11.9,78,0.00,,,0.00,WUHU21623XXSP,2014-01-27 10:17:00,
2014-01-27 05:22:00,9.7,4.1,29.75,West,277,3.4,11.4,78,0.00,,,0.00,WUHU21623XXSP,2014-01-27 10:22:00,
2014-01-27 05:27:00,9.7,4.1,29.75,WNW,292,3.8,11.9,78,0.00,,,0.00,WUHU21623XXSP,2014-01-27 10:27:00,
2014-01-27 05:32:00,9.7,3.8,29.75,NW,323,1.4,11.9,77,0.00,,,0.00,WUHU21623XXSP,2014-01-27 10:32:00,
2014-01-27 05:37:00,9.7,3.8,29.76,WNW,292,5.4,10.7,77,0.00,,,0.00,WUHU21623XXSP,2014-01-27 10:37:00,
2014-01-27 05:42:00,9.7,4.1,29.77,NW,313,5.5,13.0,78,0.00,,,0.00,WUHU21623XXSP,2014-01-27 10:42:00,
2014-01-27 05:47:00,9.5,4.3,29.76,NW,305,3.2,13.0,79,0.00,,,0.00,WUHU21623XXSP,2014-01-27 10:47:00,
2014-01-27 05:52:00,9.3,4.1,29.77,NW,315,9.8,11.9,79,0.00,,,0.00,WUHU21623XXSP,2014-01-27 10:52:00,
2014-01-27 05:57:00,9.3,3.8,29.77,NW,308,3.7,11.9,78,0.00,,,0.00,WUHU21623XXSP,2014-01-27 10:57:00,
2014-01-27 06:02:00,9.1,3.1,29.78,WNW,292,8.3,10.7,76,0.00,,,0.00,WUHU21623XXSP,2014-01-27 11:02:00,
2014-01-27 06:07:00,9.1,3.1,29.78,North,0,6.0,10.7,76,0.00,,,0.00,WUHU21623XXSP,2014-01-27 11:07:00,
2014-01-27 06:12:00,9.1,3.1,29.79,WNW,301,6.0,15.9,76,0.00,,,0.00,WUHU21623XXSP,2014-01-27 11:12:00,
2014-01-27 06:17:00,9.1,3.1,29.79,WNW,288,4.0,15.9,76,0.00,,,0.00,WUHU21623XXSP,2014-01-27 11:17:00,
2014-01-27 06:22:00,9.1,3.1,29.79,NW,304,1.7,14.5,76,0.00,,,0.00,WUHU21623XXSP,2014-01-27 11:22:00,
2014-01-27 06:27:00,9.1,3.4,29.79,WNW,292,3.1,7.2,77,0.00,,,0.00,WUHU21623XXSP,2014-01-27 11:27:00,
2014-01-27 06:32:00,9.1,3.1,29.80,WNW,292,8.3,13.9,76,0.00,,,0.00,WUHU21623XXSP,2014-01-27 11:32:00,
2014-01-27 06:37:00,9.1,3.1,29.80,West,270,7.4,13.9,76,0.00,,,0.00,WUHU21623XXSP,2014-01-27 11:37:00,
2014-01-27 06:42:00,9.0,2.9,29.80,NW,315,6.0,12.3,76,0.00,,,0.00,WUHU21623XXSP,2014-01-27 11:42:00,
2014-01-27 06:47:00,8.8,2.8,29.81,West,273,3.8,12.3,76,0.00,,,0.00,WUHU21623XXSP,2014-01-27 11:47:00,
2014-01-27 06:52:00,8.8,3.0,29.81,NW,315,4.5,9.4,77,0.00,,,0.00,WUHU21623XXSP,2014-01-27 11:52:00,
2014-01-27 06:57:00,8.6,2.9,29.82,NNW,342,2.7,9.2,77,0.00,,,0.00,WUHU21623XXSP,2014-01-27 11:57:00,
2014-01-27 07:02:00,8.4,2.7,29.82,NW,315,6.7,10.1,77,0.00,,,0.00,WUHU21623XXSP,2014-01-27 12:02:00,
2014-01-27 07:07:00,8.4,2.7,29.82,WNW,300,3.9,10.1,77,0.00,,,0.00,WUHU21623XXSP,2014-01-27 12:07:00,
2014-01-27 07:12:00,8.4,2.4,29.83,WNW,287,4.8,8.7,76,0.00,,,0.00,WUHU21623XXSP,2014-01-27 12:12:00,
2014-01-27 07:17:00,8.4,2.1,29.83,WNW,301,6.5,11.4,75,0.00,,,0.00,WUHU21623XXSP,2014-01-27 12:17:00,
2014-01-27 07:22:00,8.2,2.2,29.84,West,278,3.3,11.4,76,0.00,,,0.00,WUHU21623XXSP,2014-01-27 12:22:00,
2014-01-27 07:27:00,8.2,2.2,29.84,West,270,3.4,9.8,76,0.00,,,0.00,WUHU21623XXSP,2014-01-27 12:27:00,
2014-01-27 07:32:00,8.1,2.3,29.84,WNW,288,2.7,10.1,77,0.00,,,0.00,WUHU21623XXSP,2014-01-27 12:32:00,
2014-01-27 07:37:00,8.1,2.3,29.84,NNW,337,4.3,10.7,77,0.00,,,0.00,WUHU21623XXSP,2014-01-27 12:37:00,
2014-01-27 07:42:00,7.9,2.4,29.84,NW,306,2.9,10.7,78,0.00,,,0.00,WUHU21623XXSP,2014-01-27 12:42:00,
2014-01-27 07:47:00,7.7,2.3,29.85,West,269,4.2,9.8,78,0.00,,,0.00,WUHU21623XXSP,2014-01-27 12:47:00,
2014-01-27 07:52:00,7.5,1.8,29.85,WNW,292,3.2,9.8,77,0.00,,,0.00,WUHU21623XXSP,2014-01-27 12:52:00,
2014-01-27 07:57:00,7.5,1.5,29.85,WNW,287,4.1,7.2,76,0.00,,,0.00,WUHU21623XXSP,2014-01-27 12:57:00,
2014-01-27 08:02:00,7.5,1.5,29.85,WNW,286,2.8,7.2,76,0.00,,,0.00,WUHU21623XXSP,2014-01-27 13:02:00,
2014-01-27 08:07:00,7.5,1.2,29.86,NW,319,5.3,9.6,75,0.00,,,0.00,WUHU21623XXSP,2014-01-27 13:07:00,
2014-01-27 08:12:00,7.5,1.2,29.86,West,270,4.9,9.6,75,0.00,,,0.00,WUHU21623XXSP,2014-01-27 13:12:00,
2014-01-27 08:17:00,7.5,1.2,29.87,NW,309,4.8,11.9,75,0.00,,,0.00,WUHU21623XXSP,2014-01-27 13:17:00,
2014-01-27 08:22:00,7.3,1.0,29.87,WNW,292,4.0,11.9,75,0.00,,,0.00,WUHU21623XXSP,2014-01-27 13:22:00,
2014-01-27 08:27:00,7.2,1.1,29.87,West,264,4.1,11.4,76,0.00,,,0.00,WUHU21623XXSP,2014-01-27 13:27:00,
2014-01-27 08:32:00,7.2,1.4,29.88,West,270,7.2,11.4,77,0.00,,,0.00,WUHU21623XXSP,2014-01-27 13:32:00,
2014-01-27 08:37:00,7.2,1.7,29.88,West,280,3.8,9.4,78,0.00,,,0.00,WUHU21623XXSP,2014-01-27 13:37:00,
2014-01-27 08:42:00,7.2,1.7,29.88,NW,315,6.3,9.4,78,0.00,,,0.00,WUHU21623XXSP,2014-01-27 13:42:00,
2014-01-27 08:47:00,7.0,1.5,29.89,WNW,292,2.9,10.1,78,0.00,,,0.00,WUHU21623XXSP,2014-01-27 13:47:00,
2014-01-27 08:52:00,7.0,1.5,29.88,NW,312,2.1,10.1,78,0.00,,,0.00,WUHU21623XXSP,2014-01-27 13:52:00,
2014-01-27 08:57:00,7.0,1.5,29.89,South,180,5.4,8.3,78,0.00,,,0.00,WUHU21623XXSP,2014-01-27 13:57:00,
2014-01-27 09:02:00,7.2,1.7,29.89,West,270,2.9,9.2,78,0.00,,,0.00,WUHU21623XXSP,2014-01-27 14:02:00,
2014-01-27 09:07:00,7.2,1.1,29.89,NW,315,9.2,10.7,76,0.00,,,0.00,WUHU21623XXSP,2014-01-27 14:07:00,
2014-01-27 09:12:00,7.2,0.9,29.89,WNW,294,1.6,10.7,75,0.00,,,0.00,WUHU21623XXSP,2014-01-27 14:12:00,
2014-01-27 09:17:00,7.3,1.0,29.90,West,272,4.9,13.2,75,0.00,,,0.00,WUHU21623XXSP,2014-01-27 14:17:00,
2014-01-27 09:22:00,7.3,1.0,29.91,NW,315,6.3,13.2,75,0.00,,,0.00,WUHU21623XXSP,2014-01-27 14:22:00,
2014-01-27 09:27:00,7.3,1.0,29.91,West,281,3.5,13.2,75,0.00,,,0.00,WUHU21623XXSP,2014-01-27 14:27:00,
2014-01-27 09:32:00,7.5,1.2,29.92,WNW,300,3.4,10.3,75,0.00,,,0.00,WUHU21623XXSP,2014-01-27 14:32:00,
2014-01-27 09:37:00,7.5,1.2,29.92,WNW,303,2.0,9.6,75,0.00,,,0.00,WUHU21623XXSP,2014-01-27 14:37:00,
2014-01-27 09:42:00,7.5,0.9,29.92,NW,308,3.9,7.4,74,0.00,,,0.00,WUHU21623XXSP,2014-01-27 14:42:00,
2014-01-27 09:47:00,7.5,0.9,29.92,NW,314,1.8,10.3,74,0.00,,,0.00,WUHU21623XXSP,2014-01-27 14:47:00,
2014-01-27 09:52:00,7.5,0.6,29.92,West,270,5.6,10.3,73,0.00,,,0.00,WUHU21623XXSP,2014-01-27 14:52:00,
2014-01-27 09:57:00,7.7,0.6,29.92,West,270,6.5,8.9,73,0.00,,,0.00,WUHU21623XXSP,2014-01-27 14:57:00,
2014-01-27 10:02:00,7.7,0.2,29.93,West,276,5.9,11.4,71,0.00,,,0.00,WUHU21623XXSP,2014-01-27 15:02:00,
2014-01-27 10:07:00,7.9,0.4,29.93,WNW,294,3.2,11.4,71,0.00,,,0.00,WUHU21623XXSP,2014-01-27 15:07:00,
2014-01-27 10:12:00,8.2,0.5,29.93,South,180,4.5,8.1,70,0.00,,,0.00,WUHU21623XXSP,2014-01-27 15:12:00,
2014-01-27 10:17:00,8.8,1.0,29.93,NW,325,3.3,9.8,70,0.00,,,0.00,WUHU21623XXSP,2014-01-27 15:17:00,
2014-01-27 10:22:00,9.1,1.6,29.94,NW,315,8.3,9.8,71,0.00,,,0.00,WUHU21623XXSP,2014-01-27 15:22:00,
2014-01-27 10:27:00,9.0,1.8,29.94,NW,315,4.0,10.5,72,0.00,,,0.00,WUHU21623XXSP,2014-01-27 15:27:00,
2014-01-27 10:32:00,9.0,1.8,29.94,WSW,247,4.9,10.5,72,0.00,,,0.00,WUHU21623XXSP,2014-01-27 15:32:00,
2014-01-27 10:37:00,8.8,1.6,29.95,West,270,6.5,10.3,72,0.00,,,0.00,WUHU21623XXSP,2014-01-27 15:37:00,
2014-01-27 10:42:00,8.6,1.1,29.94,WNW,292,6.9,10.3,71,0.00,,,0.00,WUHU21623XXSP,2014-01-27 15:42:00,
2014-01-27 10:47:00,8.4,0.7,29.95,WNW,292,2.6,12.1,70,0.00,,,0.00,WUHU21623XXSP,2014-01-27 15:47:00,
2014-01-27 10:52:00,8.4,0.7,29.96,WNW,296,4.1,12.1,70,0.00,,,0.00,WUHU21623XXSP,2014-01-27 15:52:00,
2014-01-27 10:57:00,7.9,0.7,29.96,NW,315,5.4,9.6,72,0.00,,,0.00,WUHU21623XXSP,2014-01-27 15:57:00,
2014-01-27 11:02:00,7.7,0.8,29.96,WNW,290,4.6,8.5,73,0.00,,,0.00,WUHU21623XXSP,2014-01-27 16:02:00,
2014-01-27 11:07:00,7.7,0.8,29.96,West,275,4.2,8.3,73,0.00,,,0.00,WUHU21623XXSP,2014-01-27 16:07:00,
2014-01-27 11:12:00,7.5,0.6,29.96,West,270,5.8,10.7,73,0.00,,,0.00,WUHU21623XXSP,2014-01-27 16:12:00,
2014-01-27 11:17:00,7.5,0.6,29.96,WNW,293,4.2,12.8,73,0.00,,,0.00,WUHU21623XXSP,2014-01-27 16:17:00,
2014-01-27 11:22:00,7.9,0.7,29.96,WNW,285,5.5,12.8,72,0.00,,,0.00,WUHU21623XXSP,2014-01-27 16:22:00,
2014-01-27 11:27:00,7.9,0.7,29.96,WNW,288,4.9,10.5,72,0.00,,,0.00,WUHU21623XXSP,2014-01-27 16:27:00,
2014-01-27 11:32:00,7.5,0.1,29.97,WNW,284,7.3,12.5,71,0.00,,,0.00,WUHU21623XXSP,2014-01-27 16:32:00,
2014-01-27 11:37:00,7.3,0.4,29.97,NW,315,7.2,12.5,72,0.00,,,0.00,WUHU21623XXSP,2014-01-27 16:37:00,
2014-01-27 11:42:00,7.3,0.5,29.97,WNW,293,5.0,9.6,73,0.00,,,0.00,WUHU21623XXSP,2014-01-27 16:42:00,
2014-01-27 11:47:00,7.2,0.3,29.97,NW,311,3.1,9.4,73,0.00,,,0.00,WUHU21623XXSP,2014-01-27 16:47:00,
2014-01-27 11:52:00,7.5,0.6,29.97,NW,313,2.1,7.6,73,0.00,,,0.00,WUHU21623XXSP,2014-01-27 16:52:00,
2014-01-27 11:57:00,8.1,0.9,29.97,NNW,327,2.0,6.5,72,0.00,,,0.00,WUHU21623XXSP,2014-01-27 16:57:00,
2014-01-27 12:02:00,8.2,1.1,29.97,WNW,292,4.9,7.8,72,0.00,,,0.00,WUHU21623XXSP,2014-01-27 17:02:00,
2014-01-27 12:07:00,8.2,1.1,29.97,NW,314,3.8,7.8,72,0.00,,,0.00,WUHU21623XXSP,2014-01-27 17:07:00,
2014-01-27 12:12:00,8.6,1.4,29.97,West,267,5.1,7.8,72,0.00,,,0.00,WUHU21623XXSP,2014-01-27 17:12:00,
2014-01-27 12:17:00,9.1,1.6,29.97,West,265,3.3,9.6,71,0.00,,,0.00,WUHU21623XXSP,2014-01-27 17:17:00,
2014-01-27 12:22:00,9.1,1.3,29.97,NW,315,5.8,10.7,70,0.00,,,0.00,WUHU21623XXSP,2014-01-27 17:22:00,
2014-01-27 12:27:00,9.0,1.3,29.97,West,270,7.6,10.7,70,0.00,,,0.00,WUHU21623XXSP,2014-01-27 17:27:00,
2014-01-27 12:32:00,8.8,1.0,29.97,WSW,249,5.0,9.4,70,0.00,,,0.00,WUHU21623XXSP,2014-01-27 17:32:00,
2014-01-27 12:37:00,8.4,0.7,29.97,WNW,292,8.7,9.4,70,0.00,,,0.00,WUHU21623XXSP,2014-01-27 17:37:00,
2014-01-27 12:42:00,8.4,0.3,29.98,NW,314,5.5,12.3,69,0.00,,,0.00,WUHU21623XXSP,2014-01-27 17:42:00,
2014-01-27 12:47:00,8.6,0.5,29.97,WNW,286,5.5,12.3,69,0.00,,,0.00,WUHU21623XXSP,2014-01-27 17:47:00,
2014-01-27 12:52:00,9.0,0.8,29.97,NW,308,3.4,11.9,69,0.00,,,0.00,WUHU21623XXSP,2014-01-27 17:52:00,
2014-01-27 12:57:00,9.3,0.5,29.98,WSW,247,6.5,10.7,67,0.00,,,0.00,WUHU21623XXSP,2014-01-27 17:57:00,
2014-01-27 13:02:00,9.3,0.5,29.98,WSW,248,6.8,11.9,67,0.00,,,0.00,WUHU21623XXSP,2014-01-27 18:02:00,
2014-01-27 13:07:00,9.3,0.5,29.98,West,269,3.6,11.9,67,0.00,,,0.00,WUHU21623XXSP,2014-01-27 18:07:00,
2014-01-27 13:12:00,9.7,0.2,29.97,West,269,4.3,11.4,65,0.00,,,0.00,WUHU21623XXSP,2014-01-27 18:12:00,
2014-01-27 13:17:00,9.5,-0.3,29.98,West,270,6.0,11.4,64,0.00,,,0.00,WUHU21623XXSP,2014-01-27 18:17:00,
2014-01-27 13:22:00,9.7,0.2,29.98,West,268,5.7,11.4,65,0.00,,,0.00,WUHU21623XXSP,2014-01-27 18:22:00,
2014-01-27 13:27:00,9.3,0.5,29.98,West,270,7.4,11.4,67,0.00,,,0.00,WUHU21623XXSP,2014-01-27 18:27:00,
2014-01-27 13:32:00,9.0,0.2,29.98,NW,308,3.8,8.3,67,0.00,,,0.00,WUHU21623XXSP,2014-01-27 18:32:00,
2014-01-27 13:37:00,8.4,-0.7,29.98,WNW,292,7.4,11.9,66,0.00,,,0.00,WUHU21623XXSP,2014-01-27 18:37:00,
2014-01-27 13:42:00,8.2,-1.2,29.97,WNW,282,3.3,11.9,65,0.00,,,0.00,WUHU21623XXSP,2014-01-27 18:42:00,
2014-01-27 13:47:00,8.1,-1.4,29.97,WSW,252,5.2,12.8,65,0.00,,,0.00,WUHU21623XXSP,2014-01-27 18:47:00,
2014-01-27 13:52:00,7.9,-1.9,29.97,West,270,6.3,12.8,64,0.00,,,0.00,WUHU21623XXSP,2014-01-27 18:52:00,
2014-01-27 13:57:00,7.9,-1.9,29.98,WNW,292,6.9,9.2,64,0.00,,,0.00,WUHU21623XXSP,2014-01-27 18:57:00,
2014-01-27 14:02:00,7.5,-2.2,29.98,West,266,6.1,10.1,64,0.00,,,0.00,WUHU21623XXSP,2014-01-27 19:02:00,
2014-01-27 14:07:00,7.2,-2.6,29.98,WSW,247,4.5,10.1,64,0.00,,,0.00,WUHU21623XXSP,2014-01-27 19:07:00,
2014-01-27 14:12:00,7.0,-2.4,29.98,West,268,3.8,10.7,65,0.00,,,0.00,WUHU21623XXSP,2014-01-27 19:12:00,
2014-01-27 14:17:00,7.2,-1.9,29.99,West,270,4.7,10.7,66,0.00,,,0.00,WUHU21623XXSP,2014-01-27 19:17:00,
2014-01-27 14:22:00,7.2,-1.9,29.99,WNW,292,5.4,15.7,66,0.00,,,0.00,WUHU21623XXSP,2014-01-27 19:22:00,
2014-01-27 14:27:00,7.0,-2.1,29.99,WNW,292,9.6,15.7,66,0.00,,,0.00,WUHU21623XXSP,2014-01-27 19:27:00,
2014-01-27 14:32:00,6.8,-1.6,29.99,WSW,247,7.8,11.0,68,0.00,,,0.00,WUHU21623XXSP,2014-01-27 19:32:00,
2014-01-27 14:37:00,6.6,-1.8,29.99,West,268,5.0,10.7,68,0.00,,,0.00,WUHU21623XXSP,2014-01-27 19:37:00,
2014-01-27 14:42:00,6.4,-1.9,30.00,WSW,257,5.2,11.2,68,0.00,,,0.00,WUHU21623XXSP,2014-01-27 19:42:00,
2014-01-27 14:47:00,6.1,-2.0,30.00,WNW,284,4.4,11.9,69,0.00,,,0.00,WUHU21623XXSP,2014-01-27 19:47:00,
2014-01-27 14:52:00,6.1,-1.7,30.00,NW,315,7.4,11.9,70,0.00,,,0.00,WUHU21623XXSP,2014-01-27 19:52:00,
2014-01-27 14:57:00,6.1,-1.7,30.00,West,270,6.0,11.6,70,0.00,,,0.00,WUHU21623XXSP,2014-01-27 19:57:00,
2014-01-27 15:02:00,6.1,-2.0,30.00,WNW,301,4.2,8.7,69,0.00,,,0.00,WUHU21623XXSP,2014-01-27 20:02:00,
2014-01-27 15:07:00,6.1,-1.4,30.00,West,269,5.0,8.7,71,0.00,,,0.00,WUHU21623XXSP,2014-01-27 20:07:00,
2014-01-27 15:11:00,6.1,-1.7,30.00,NW,315,3.8,8.1,70,0.00,,,0.00,WUHU21623XXSP,2014-01-27 20:11:00,
2014-01-27 15:16:00,6.3,-2.1,30.00,WSW,247,12.8,12.8,68,0.00,,,0.00,WUHU21623XXSP,2014-01-27 20:16:00,
2014-01-27 15:21:00,6.1,-2.0,30.01,WNW,292,6.0,12.8,69,0.00,,,0.00,WUHU21623XXSP,2014-01-27 20:21:00,
2014-01-27 15:26:00,5.5,-2.2,30.01,West,270,4.5,12.8,70,0.00,,,0.00,WUHU21623XXSP,2014-01-27 20:26:00,
2014-01-27 15:31:00,5.0,-2.5,30.02,WNW,293,4.8,11.2,71,0.00,,,0.00,WUHU21623XXSP,2014-01-27 20:31:00,
2014-01-27 15:36:00,4.6,-2.5,30.02,WNW,292,4.0,11.2,72,0.00,,,0.00,WUHU21623XXSP,2014-01-27 20:36:00,
2014-01-27 15:41:00,4.3,-2.6,30.02,NW,315,6.3,7.6,73,0.00,,,0.00,WUHU21623XXSP,2014-01-27 20:41:00,
2014-01-27 15:46:00,4.3,-2.6,30.02,WNW,292,3.8,8.7,73,0.00,,,0.00,WUHU21623XXSP,2014-01-27 20:46:00,
2014-01-27 15:51:00,4.3,-2.6,30.02,WNW,292,6.9,8.7,73,0.00,,,0.00,WUHU21623XXSP,2014-01-27 20:51:00,
2014-01-27 15:56:00,4.1,-2.7,30.03,West,278,2.9,8.5,73,0.00,,,0.00,WUHU21623XXSP,2014-01-27 20:56:00,
2014-01-27 16:01:00,4.3,-2.6,30.03,NNW,337,4.3,8.5,73,0.00,,,0.00,WUHU21623XXSP,2014-01-27 21:01:00,
2014-01-27 16:06:00,4.1,-3.3,30.04,WNW,285,4.9,8.1,71,0.00,,,0.00,WUHU21623XXSP,2014-01-27 21:06:00,
2014-01-27 16:11:00,4.1,-3.0,30.03,NNW,337,4.5,8.1,72,0.00,,,0.00,WUHU21623XXSP,2014-01-27 21:11:00,
2014-01-27 16:16:00,3.9,-2.9,30.03,NNW,337,6.7,10.3,73,0.00,,,0.00,WUHU21623XXSP,2014-01-27 21:16:00,
2014-01-27 16:21:00,3.9,-3.2,30.03,WNW,282,3.1,10.3,72,0.00,,,0.00,WUHU21623XXSP,2014-01-27 21:21:00,
2014-01-27 16:26:00,4.3,-3.1,30.04,WNW,293,4.5,11.6,71,0.00,,,0.00,WUHU21623XXSP,2014-01-27 21:26:00,
2014-01-27 16:31:00,4.1,-3.6,30.04,WNW,290,3.5,11.6,70,0.00,,,0.00,WUHU21623XXSP,2014-01-27 21:31:00,
2014-01-27 16:36:00,3.9,-3.7,30.05,WNW,285,3.5,7.4,70,0.00,,,0.00,WUHU21623XXSP,2014-01-27 21:36:00,
2014-01-27 16:41:00,3.9,-3.4,30.05,SW,225,7.6,9.2,71,0.00,,,0.00,WUHU21623XXSP,2014-01-27 21:41:00,
2014-01-27 16:46:00,3.6,-3.8,30.05,NNW,328,2.3,9.2,71,0.00,,,0.00,WUHU21623XXSP,2014-01-27 21:46:00,
2014-01-27 16:51:00,3.4,-3.7,30.05,SW,225,4.3,7.6,72,0.00,,,0.00,WUHU21623XXSP,2014-01-27 21:51:00,
2014-01-27 16:56:00,3.2,-3.6,30.05,West,270,7.6,11.9,73,0.00,,,0.00,WUHU21623XXSP,2014-01-27 21:56:00,
2014-01-27 17:01:00,2.8,-3.9,30.05,West,266,6.1,11.9,73,0.00,,,0.00,WUHU21623XXSP,2014-01-27 22:01:00,
2014-01-27 17:06:00,2.8,-3.6,30.05,NW,314,2.7,8.3,74,0.00,,,0.00,WUHU21623XXSP,2014-01-27 22:06:00,
2014-01-27 17:11:00,2.8,-3.6,30.06,North,0,3.8,7.2,74,0.00,,,0.00,WUHU21623XXSP,2014-01-27 22:11:00,
2014-01-27 17:16:00,2.5,-4.0,30.06,NNW,337,5.4,6.5,74,0.00,,,0.00,WUHU21623XXSP,2014-01-27 22:16:00,
2014-01-27 17:21:00,2.5,-3.7,30.06,NNW,337,7.8,7.8,75,0.00,,,0.00,WUHU21623XXSP,2014-01-27 22:21:00,
2014-01-27 17:26:00,2.3,-3.7,30.06,NW,317,2.8,7.8,75,0.00,,,0.00,WUHU21623XXSP,2014-01-27 22:26:00,
2014-01-27 17:31:00,2.5,-3.7,30.06,WNW,299,2.8,6.3,75,0.00,,,0.00,WUHU21623XXSP,2014-01-27 22:31:00,
2014-01-27 17:36:00,2.3,-3.9,30.06,NW,313,1.0,4.9,75,0.00,,,0.00,WUHU21623XXSP,2014-01-27 22:36:00,
2014-01-27 17:41:00,2.5,-3.7,30.07,NW,315,2.5,10.3,75,0.00,,,0.00,WUHU21623XXSP,2014-01-27 22:41:00,
2014-01-27 17:46:00,2.5,-3.7,30.07,ENE,67,4.0,10.3,75,0.00,,,0.00,WUHU21623XXSP,2014-01-27 22:46:00,
2014-01-27 17:51:00,2.3,-3.9,30.07,WNW,291,3.8,7.2,75,0.00,,,0.00,WUHU21623XXSP,2014-01-27 22:51:00,
2014-01-27 17:56:00,2.1,-4.1,30.07,WNW,295,3.0,7.2,75,0.00,,,0.00,WUHU21623XXSP,2014-01-27 22:56:00,
2014-01-27 18:01:00,2.1,-4.1,30.07,NW,315,2.5,6.0,75,0.00,,,0.00,WUHU21623XXSP,2014-01-27 23:01:00,
2014-01-27 18:05:00,1.9,-4.5,30.08,NW,313,3.7,6.3,74,0.00,,,0.00,WUHU21623XXSP,2014-01-27 23:05:00,
2014-01-27 18:10:00,1.9,-4.5,30.08,WNW,287,4.2,10.3,74,0.00,,,0.00,WUHU21623XXSP,2014-01-27 23:10:00,
2014-01-27 18:15:00,1.9,-4.3,30.08,NW,315,4.7,10.3,75,0.00,,,0.00,WUHU21623XXSP,2014-01-27 23:15:00,
2014-01-27 18:20:00,1.9,-4.3,30.09,WSW,247,5.1,7.6,75,0.00,,,0.00,WUHU21623XXSP,2014-01-27 23:20:00,
2014-01-27 18:25:00,1.9,-4.3,30.09,NW,308,3.7,5.4,75,0.00,,,0.00,WUHU21623XXSP,2014-01-27 23:25:00,
2014-01-27 18:30:00,1.9,-4.5,30.09,West,280,1.6,5.4,74,0.00,,,0.00,WUHU21623XXSP,2014-01-27 23:30:00,
2014-01-27 18:35:00,1.9,-4.5,30.10,North,0,2.9,3.4,74,0.00,,,0.00,WUHU21623XXSP,2014-01-27 23:35:00,
2014-01-27 18:40:00,1.9,-4.3,30.10,WNW,302,1.6,4.0,75,0.00,,,0.00,WUHU21623XXSP,2014-01-27 23:40:00,
2014-01-27 18:45:00,1.9,-4.3,30.10,West,270,2.7,6.7,75,0.00,,,0.00,WUHU21623XXSP,2014-01-27 23:45:00,
2014-01-27 18:50:00,1.9,-4.3,30.10,West,270,3.1,6.7,75,0.00,,,0.00,WUHU21623XXSP,2014-01-27 23:50:00,
2014-01-27 18:55:00,1.9,-4.3,30.10,NW,315,5.1,6.9,75,0.00,,,0.00,WUHU21623XXSP,2014-01-27 23:55:00,
2014-01-27 19:00:00,1.9,-4.3,30.10,NNE,24,1.8,6.9,75,0.00,,,0.00,WUHU21623XXSP,2014-01-28 00:00:00,
2014-01-27 19:05:00,1.9,-4.0,30.10,WNW,286,4.5,8.3,76,0.00,,,0.00,WUHU21623XXSP,2014-01-28 00:05:00,
2014-01-27 19:10:00,1.9,-4.0,30.10,WNW,294,2.6,10.3,76,0.00,,,0.00,WUHU21623XXSP,2014-01-28 00:10:00,
2014-01-27 19:15:00,1.9,-4.0,30.10,WNW,294,2.4,10.3,76,0.00,,,0.00,WUHU21623XXSP,2014-01-28 00:15:00,
2014-01-27 19:20:00,1.9,-4.0,30.11,NW,306,2.1,6.9,76,0.00,,,0.00,WUHU21623XXSP,2014-01-28 00:20:00,
2014-01-27 19:25:00,1.9,-4.0,30.11,North,0,4.3,8.7,76,0.00,,,0.00,WUHU21623XXSP,2014-01-28 00:25:00,
2014-01-27 19:30:00,2.1,-3.8,30.11,WNW,282,2.1,8.7,76,0.00,,,0.00,WUHU21623XXSP,2014-01-28 00:30:00,
2014-01-27 19:35:00,2.1,-3.8,30.11,WSW,258,1.8,7.4,76,0.00,,,0.00,WUHU21623XXSP,2014-01-28 00:35:00,
2014-01-27 19:40:00,2.1,-3.8,30.12,WNW,291,3.4,6.5,76,0.00,,,0.00,WUHU21623XXSP,2014-01-28 00:40:00,
2014-01-27 19:45:00,2.1,-3.8,30.12,WNW,286,2.0,7.6,76,0.00,,,0.00,WUHU21623XXSP,2014-01-28 00:45:00,
2014-01-27 19:50:00,2.1,-3.8,30.12,WNW,298,2.9,7.6,76,0.00,,,0.00,WUHU21623XXSP,2014-01-28 00:50:00,
2014-01-27 19:55:00,2.1,-3.8,30.12,West,274,4.2,7.2,76,0.00,,,0.00,WUHU21623XXSP,2014-01-28 00:55:00,
2014-01-27 20:00:00,2.3,-3.6,30.12,WNW,289,2.2,7.2,76,0.00,,,0.00,WUHU21623XXSP,2014-01-28 01:00:00,
2014-01-27 20:05:00,2.3,-3.4,30.13,West,275,4.1,7.6,77,0.00,,,0.00,WUHU21623XXSP,2014-01-28 01:05:00,
2014-01-27 20:10:00,2.3,-3.4,30.13,NW,315,6.0,7.6,77,0.00,,,0.00,WUHU21623XXSP,2014-01-28 01:10:00,
2014-01-27 20:15:00,2.3,-3.4,30.13,NW,315,4.9,6.9,77,0.00,,,0.00,WUHU21623XXSP,2014-01-28 01:15:00,
2014-01-27 20:20:00,2.3,-3.4,30.12,WNW,288,3.3,9.6,77,0.00,,,0.00,WUHU21623XXSP,2014-01-28 01:20:00,
2014-01-27 20:25:00,2.3,-3.4,30.13,WNW,298,2.2,9.6,77,0.00,,,0.00,WUHU21623XXSP,2014-01-28 01:25:00,
2014-01-27 20:30:00,2.3,-3.6,30.12,NW,305,3.0,4.9,76,0.00,,,0.00,WUHU21623XXSP,2014-01-28 01:30:00,
2014-01-27 20:35:00,2.3,-3.6,30.12,NW,315,3.6,6.3,76,0.00,,,0.00,WUHU21623XXSP,2014-01-28 01:35:00,
2014-01-27 20:40:00,2.3,-3.6,30.13,NW,315,8.9,8.9,76,0.00,,,0.00,WUHU21623XXSP,2014-01-28 01:40:00,
2014-01-27 20:45:00,2.3,-3.4,30.12,WNW,290,3.3,8.9,77,0.00,,,0.00,WUHU21623XXSP,2014-01-28 01:45:00,
2014-01-27 20:50:00,2.3,-3.4,30.13,WNW,293,3.0,8.3,77,0.00,,,0.00,WUHU21623XXSP,2014-01-28 01:50:00,
2014-01-27 20:55:00,2.5,-3.2,30.12,WSW,247,3.6,6.5,77,0.00,,,0.00,WUHU21623XXSP,2014-01-28 01:55:00,
2014-01-27 21:00:00,2.5,-3.2,30.13,WNW,292,1.6,5.6,77,0.00,,,0.00,WUHU21623XXSP,2014-01-28 02:00:00,
2014-01-27 21:05:00,2.5,-3.2,30.13,WSW,239,1.3,5.8,77,0.00,,,0.00,WUHU21623XXSP,2014-01-28 02:05:00,
2014-01-27 21:10:00,2.5,-2.9,30.13,WNW,298,2.0,5.8,78,0.00,,,0.00,WUHU21623XXSP,2014-01-28 02:10:00,
2014-01-27 21:15:00,2.5,-2.9,30.13,West,270,3.8,5.4,78,0.00,,,0.00,WUHU21623XXSP,2014-01-28 02:15:00,
2014-01-27 21:20:00,2.5,-2.9,30.13,NW,315,3.6,5.4,78,0.00,,,0.00,WUHU21623XXSP,2014-01-28 02:20:00,
2014-01-27 21:25:00,2.5,-2.9,30.13,West,273,3.4,7.6,78,0.00,,,0.00,WUHU21623XXSP,2014-01-28 02:25:00,
2014-01-27 21:30:00,2.5,-2.9,30.13,SSW,202,2.1,7.6,78,0.00,,,0.00,WUHU21623XXSP,2014-01-28 02:30:00,
2014-01-27 21:35:00,2.5,-2.9,30.13,West,273,2.9,8.3,78,0.00,,,0.00,WUHU21623XXSP,2014-01-28 02:35:00,
2014-01-27 21:40:00,2.8,-2.6,30.13,WNW,289,3.5,8.3,78,0.00,,,0.00,WUHU21623XXSP,2014-01-28 02:40:00,
2014-01-27 21:45:00,2.8,-2.6,30.14,West,280,4.3,6.3,78,0.00,,,0.00,WUHU21623XXSP,2014-01-28 02:45:00,
2014-01-27 21:50:00,2.8,-2.6,30.14,WSW,247,2.2,6.3,78,0.00,,,0.00,WUHU21623XXSP,2014-01-28 02:50:00,
2014-01-27 21:55:00,2.8,-2.6,30.14,NW,315,5.1,5.8,78,0.00,,,0.00,WUHU21623XXSP,2014-01-28 02:55:00,
2014-01-27 22:00:00,2.8,-2.6,30.14,West,271,3.7,6.9,78,0.00,,,0.00,WUHU21623XXSP,2014-01-28 03:00:00,
2014-01-27 22:05:00,2.8,-2.6,30.14,WNW,294,3.8,7.4,78,0.00,,,0.00,WUHU21623XXSP,2014-01-28 03:05:00,
2014-01-27 22:10:00,2.8,-2.8,30.14,West,270,0.9,7.4,77,0.00,,,0.00,WUHU21623XXSP,2014-01-28 03:10:00,
2014-01-27 22:15:00,2.8,-2.8,30.14,NW,308,2.3,5.4,77,0.00,,,0.00,WUHU21623XXSP,2014-01-28 03:15:00,
2014-01-27 22:20:00,2.8,-2.8,30.14,WNW,288,2.0,5.4,77,0.00,,,0.00,WUHU21623XXSP,2014-01-28 03:20:00,
2014-01-27 22:25:00,2.8,-2.8,30.15,WNW,285,2.7,8.9,77,0.00,,,0.00,WUHU21623XXSP,2014-01-28 03:25:00,
2014-01-27 22:30:00,2.8,-3.1,30.15,NW,315,2.9,8.9,76,0.00,,,0.00,WUHU21623XXSP,2014-01-28 03:30:00,
2014-01-27 22:35:00,2.8,-3.1,30.15,West,259,2.5,7.6,76,0.00,,,0.00,WUHU21623XXSP,2014-01-28 03:35:00,
2014-01-27 22:40:00,2.8,-3.1,30.15,West,274,3.3,6.7,76,0.00,,,0.00,WUHU21623XXSP,2014-01-28 03:40:00,
2014-01-27 22:45:00,2.8,-3.1,30.15,West,269,5.0,8.3,76,0.00,,,0.00,WUHU21623XXSP,2014-01-28 03:45:00,
2014-01-27 22:50:00,2.8,-3.1,30.15,NW,315,4.7,8.3,76,0.00,,,0.00,WUHU21623XXSP,2014-01-28 03:50:00,
2014-01-27 22:55:00,2.8,-3.1,30.15,WNW,290,3.2,7.6,76,0.00,,,0.00,WUHU21623XXSP,2014-01-28 03:55:00,
2014-01-27 23:00:00,3.0,-2.9,30.15,WNW,290,1.3,7.6,76,0.00,,,0.00,WUHU21623XXSP,2014-01-28 04:00:00,
2014-01-27 23:05:00,3.0,-2.9,30.15,West,270,2.9,4.3,76,0.00,,,0.00,WUHU21623XXSP,2014-01-28 04:05:00,
2014-01-27 23:10:00,3.0,-2.6,30.15,NW,315,1.9,4.7,77,0.00,,,0.00,WUHU21623XXSP,2014-01-28 04:10:00,
2014-01-27 23:15:00,3.0,-2.6,30.15,NNW,340,2.8,4.7,77,0.00,,,0.00,WUHU21623XXSP,2014-01-28 04:15:00,
2014-01-27 23:20:00,3.0,-2.6,30.16,West,260,2.0,4.7,77,0.00,,,0.00,WUHU21623XXSP,2014-01-28 04:20:00,
2014-01-27 23:25:00,3.0,-2.6,30.16,NW,315,2.0,5.1,77,0.00,,,0.00,WUHU21623XXSP,2014-01-28 04:25:00,
2014-01-27 23:30:00,3.0,-2.6,30.16,West,276,2.3,6.9,77,0.00,,,0.00,WUHU21623XXSP,2014-01-28 04:30:00,
2014-01-27 23:35:00,3.0,-2.6,30.16,West,275,1.1,6.9,77,0.00,,,0.00,WUHU21623XXSP,2014-01-28 04:35:00,
2014-01-27 23:40:00,3.0,-2.6,30.16,West,270,3.4,4.7,77,0.00,,,0.00,WUHU21623XXSP,2014-01-28 04:40:00,
2014-01-27 23:45:00,3.0,-2.6,30.16,NW,309,2.9,6.7,77,0.00,,,0.00,WUHU21623XXSP,2014-01-28 04:45:00,
2014-01-27 23:50:00,3.0,-2.6,30.16,WSW,247,2.7,6.7,77,0.00,,,0.00,WUHU21623XXSP,2014-01-28 04:50:00,
2014-01-27 23:55:00,3.0,-2.6,30.16,West,277,2.5,3.8,77,0.00,,,0.00,WUHU21623XXSP,2014-01-28 04:55:00,